createdAt,value
2018-04-01T00:01:32.732Z,5.65
2018-04-01T00:03:59.539Z,4.85
2018-04-01T00:06:25.594Z,4.75
2018-04-01T00:08:51.643Z,4.80
2018-04-01T00:11:17.714Z,10.63
2018-04-01T00:13:43.773Z,5.20
2018-04-01T00:16:10.575Z,5.62
2018-04-01T00:18:36.640Z,12.77
2018-04-01T00:21:03.427Z,7.15
2018-04-01T00:23:29.513Z,6.60
2018-04-01T00:25:56.315Z,7.45
2018-04-01T00:28:22.354Z,6.00
2018-04-01T00:30:48.433Z,5.57
2018-04-01T00:33:14.503Z,11.43
2018-04-01T00:35:40.559Z,10.45
2018-04-01T00:38:06.595Z,6.95
2018-04-01T00:40:32.653Z,7.68
2018-04-01T00:42:58.679Z,5.43
2018-04-01T00:45:24.734Z,5.60
2018-04-01T00:47:51.555Z,6.35
2018-04-01T00:50:17.619Z,6.55
2018-04-01T00:52:43.685Z,8.30
2018-04-01T00:55:09.736Z,6.15
2018-04-01T00:57:35.782Z,5.87
2018-04-01T01:00:02.598Z,7.45
2018-04-01T01:02:28.647Z,8.38
2018-04-01T01:04:55.461Z,9.85
2018-04-01T01:07:21.501Z,8.55
2018-04-01T01:09:47.550Z,8.65
2018-04-01T01:12:14.365Z,13.25
2018-04-01T01:14:40.401Z,11.20
2018-04-01T01:17:07.227Z,10.15
2018-04-01T01:19:33.279Z,14.13
2018-04-01T01:22:00.114Z,10.10
2018-04-01T01:24:26.160Z,13.65
2018-04-01T01:26:52.268Z,12.05
2018-04-01T01:29:19.088Z,16.65
2018-04-01T01:31:45.191Z,8.70
2018-04-01T01:34:11.237Z,12.13
2018-04-01T01:36:37.364Z,9.93
2018-04-01T01:39:03.420Z,8.80
2018-04-01T01:41:29.524Z,11.50
2018-04-01T01:43:56.373Z,7.05
2018-04-01T01:46:23.187Z,19.12
2018-04-01T01:48:49.346Z,6.60
2018-04-01T01:51:15.432Z,13.73
2018-04-01T01:53:41.546Z,11.95
2018-04-01T01:56:07.619Z,10.43
2018-04-01T01:58:33.675Z,10.70
2018-04-01T02:00:59.723Z,8.68
2018-04-01T02:03:25.793Z,8.32
2018-04-01T02:05:52.620Z,8.55
2018-04-01T02:08:18.695Z,7.82
2018-04-01T02:10:44.752Z,8.57
2018-04-01T02:13:10.805Z,6.10
2018-04-01T02:15:36.864Z,6.95
2018-04-01T02:18:02.920Z,8.13
2018-04-01T02:20:29.844Z,6.68
2018-04-01T02:22:56.348Z,12.80
2018-04-01T02:25:23.149Z,7.60
2018-04-01T02:27:49.244Z,8.13
2018-04-01T02:30:15.288Z,9.85
2018-04-01T02:32:41.345Z,9.38
2018-04-01T02:35:07.415Z,7.95
2018-04-01T02:37:33.500Z,7.80
2018-04-01T02:39:59.539Z,7.47
2018-04-01T02:42:26.328Z,7.80
2018-04-01T02:44:52.395Z,7.93
2018-04-01T02:47:18.436Z,8.15
2018-04-01T02:49:45.266Z,7.32
2018-04-01T02:52:11.300Z,10.45
2018-04-01T02:54:38.100Z,9.75
2018-04-01T02:57:04.147Z,10.73
2018-04-01T02:59:30.195Z,7.32
2018-04-01T03:01:56.985Z,10.60
2018-04-01T03:04:23.060Z,13.50
2018-04-01T03:06:49.132Z,10.55
2018-04-01T03:09:15.177Z,10.95
2018-04-01T03:11:41.246Z,10.95
2018-04-01T03:14:07.285Z,11.50
2018-04-01T03:16:33.335Z,11.10
2018-04-01T03:18:59.404Z,12.63
2018-04-01T03:21:26.688Z,10.80
2018-04-01T03:23:52.739Z,12.95
2018-04-01T03:26:18.808Z,11.43
2018-04-01T03:28:45.615Z,13.55
2018-04-01T03:31:11.663Z,12.82
2018-04-01T03:33:38.471Z,13.25
2018-04-01T03:36:05.303Z,14.40
2018-04-01T03:38:31.362Z,15.23
2018-04-01T03:40:57.428Z,12.32
2018-04-01T03:43:23.492Z,16.45
2018-04-01T03:45:49.564Z,15.82
2018-04-01T03:48:16.352Z,15.73
2018-04-01T03:50:42.392Z,14.57
2018-04-01T03:53:08.431Z,15.35
2018-04-01T03:55:34.483Z,16.42
2018-04-01T03:58:01.271Z,14.90
2018-04-01T04:00:27.314Z,16.73
2018-04-01T04:02:53.418Z,14.85
2018-04-01T04:05:19.481Z,14.30
2018-04-01T04:07:46.292Z,14.48
2018-04-01T04:10:12.375Z,13.50
2018-04-01T04:12:38.414Z,19.73
2018-04-01T04:15:04.463Z,18.50
2018-04-01T04:17:31.311Z,13.35
2018-04-01T04:19:57.326Z,16.40
2018-04-01T04:22:23.391Z,22.05
2018-04-01T04:24:49.447Z,16.50
2018-04-01T04:27:15.527Z,17.37
2018-04-01T04:29:41.881Z,15.93
2018-04-01T04:32:07.940Z,15.80
2018-04-01T04:34:33.988Z,16.62
2018-04-01T04:37:00.048Z,17.67
2018-04-01T04:39:26.831Z,14.18
2018-04-01T04:41:52.872Z,14.77
2018-04-01T04:44:18.935Z,15.85
2018-04-01T04:46:45.711Z,13.43
2018-04-01T04:49:11.763Z,17.90
2018-04-01T04:51:37.834Z,14.80
2018-04-01T04:54:04.614Z,15.00
2018-04-01T04:56:30.696Z,17.05
2018-04-01T04:58:57.506Z,17.85
2018-04-01T05:01:23.578Z,14.95
2018-04-01T05:03:49.635Z,15.35
2018-04-01T05:06:15.680Z,14.63
2018-04-01T05:08:42.478Z,16.58
2018-04-01T05:11:08.536Z,15.50
2018-04-01T05:13:34.595Z,18.42
2018-04-01T05:16:00.639Z,18.17
2018-04-01T05:18:26.683Z,14.80
2018-04-01T05:20:52.760Z,19.35
2018-04-01T05:23:18.823Z,15.43
2018-04-01T05:25:44.895Z,15.55
2018-04-01T05:28:10.960Z,18.98
2018-04-01T05:30:37.744Z,19.92
2018-04-01T05:33:03.811Z,16.92
2018-04-01T05:35:29.862Z,12.30
2018-04-01T05:37:56.180Z,11.35
2018-04-01T05:40:22.950Z,16.37
2018-04-01T05:42:49.011Z,12.88
2018-04-01T05:45:15.120Z,14.05
2018-04-01T05:47:41.175Z,12.68
2018-04-01T05:50:07.239Z,10.93
2018-04-01T05:52:33.271Z,12.40
2018-04-01T05:54:59.307Z,13.93
2018-04-01T05:57:25.364Z,12.63
2018-04-01T05:59:51.408Z,14.43
2018-04-01T06:02:18.228Z,18.05
2018-04-01T06:04:44.271Z,17.70
2018-04-01T06:07:11.067Z,18.20
2018-04-01T06:09:37.102Z,16.87
2018-04-01T06:12:03.158Z,16.55
2018-04-01T06:14:29.201Z,14.73
2018-04-01T06:16:55.976Z,17.45
2018-04-01T06:19:22.033Z,14.82
2018-04-01T06:21:48.091Z,14.50
2018-04-01T06:24:14.897Z,15.70
2018-04-01T06:26:42.196Z,16.83
2018-04-01T06:29:08.246Z,16.92
2018-04-01T06:31:34.314Z,18.00
2018-04-01T06:34:00.397Z,21.48
2018-04-01T06:36:27.219Z,15.50
2018-04-01T06:38:53.271Z,16.67
2018-04-01T06:41:19.352Z,19.10
2018-04-01T06:43:46.148Z,21.12
2018-04-01T06:46:12.181Z,18.12
2018-04-01T06:48:38.263Z,22.20
2018-04-01T06:51:04.319Z,18.35
2018-04-01T06:53:30.384Z,21.90
2018-04-01T06:55:57.183Z,19.50
2018-04-01T06:58:23.237Z,21.08
2018-04-01T07:00:49.306Z,14.85
2018-04-01T07:03:15.355Z,14.82
2018-04-01T07:05:41.452Z,14.60
2018-04-01T07:08:07.504Z,11.77
2018-04-01T07:10:33.551Z,13.95
2018-04-01T07:12:59.606Z,9.48
2018-04-01T07:15:26.396Z,9.85
2018-04-01T07:17:52.485Z,9.15
2018-04-01T07:20:19.278Z,9.20
2018-04-01T07:22:45.331Z,7.40
2018-04-01T07:25:12.164Z,6.35
2018-04-01T07:27:39.122Z,8.55
2018-04-01T07:30:05.937Z,5.55
2018-04-01T07:32:31.983Z,4.90
2018-04-01T07:34:58.799Z,5.18
2018-04-01T07:37:24.867Z,5.70
2018-04-01T07:39:51.675Z,6.93
2018-04-01T07:42:17.784Z,7.32
2018-04-01T07:44:43.828Z,8.05
2018-04-01T07:47:09.882Z,7.87
2018-04-01T07:49:36.672Z,8.93
2018-04-01T07:52:02.735Z,8.80
2018-04-01T07:54:28.799Z,12.32
2018-04-01T07:56:54.860Z,10.35
2018-04-01T07:59:20.914Z,12.55
2018-04-01T08:01:47.743Z,13.07
2018-04-01T08:04:13.803Z,12.98
2018-04-01T08:06:40.627Z,16.48
2018-04-01T08:09:07.412Z,13.90
2018-04-01T08:11:33.494Z,14.60
2018-04-01T08:14:00.292Z,14.75
2018-04-01T08:16:26.337Z,15.23
2018-04-01T08:18:53.175Z,15.02
2018-04-01T08:21:19.227Z,20.58
2018-04-01T08:23:46.060Z,17.20
2018-04-01T08:26:12.147Z,16.70
2018-04-01T08:28:38.269Z,16.75
2018-04-01T08:31:04.316Z,17.45
2018-04-01T08:33:30.366Z,20.27
2018-04-01T08:35:56.415Z,18.30
2018-04-01T08:38:22.507Z,18.23
2018-04-01T08:40:48.568Z,16.48
2018-04-01T08:43:14.634Z,21.83
2018-04-01T08:45:40.684Z,19.70
2018-04-01T08:48:06.722Z,20.05
2018-04-01T08:50:33.528Z,19.23
2018-04-01T08:52:59.571Z,21.20
2018-04-01T08:55:25.639Z,23.33
2018-04-01T08:57:51.683Z,22.92
2018-04-01T09:00:17.744Z,22.70
2018-04-01T09:02:43.814Z,22.60
2018-04-01T09:05:09.876Z,24.37
2018-04-01T09:07:35.944Z,24.50
2018-04-01T09:10:02.740Z,25.45
2018-04-01T09:12:28.787Z,26.98
2018-04-01T09:14:54.891Z,27.58
2018-04-01T09:17:20.972Z,27.48
2018-04-01T09:19:47.028Z,27.55
2018-04-01T09:22:13.121Z,26.12
2018-04-01T09:24:39.911Z,21.87
2018-04-01T09:27:06.472Z,26.87
2018-04-01T09:29:32.571Z,27.58
2018-04-01T09:31:58.627Z,20.37
2018-04-01T09:34:25.443Z,23.02
2018-04-01T09:36:51.529Z,17.25
2018-04-01T09:39:17.583Z,21.87
2018-04-01T09:41:43.639Z,18.50
2018-04-01T09:44:10.453Z,23.48
2018-04-01T09:46:36.730Z,20.42
2018-04-01T09:49:03.560Z,17.05
2018-04-01T09:51:30.372Z,22.60
2018-04-01T09:53:56.435Z,16.30
2018-04-01T09:56:22.511Z,17.23
2018-04-01T09:58:48.611Z,18.60
2018-04-01T10:01:14.856Z,19.20
2018-04-01T10:03:41.128Z,19.67
2018-04-01T10:06:08.162Z,20.05
2018-04-01T10:08:34.724Z,22.77
2018-04-01T10:11:01.747Z,21.90
2018-04-01T10:13:27.995Z,21.17
2018-04-01T10:15:55.006Z,20.58
2018-04-01T10:18:21.256Z,22.90
2018-04-01T10:20:48.280Z,24.87
2018-04-01T10:23:14.543Z,23.62
2018-04-01T10:25:40.783Z,21.62
2018-04-01T10:28:07.814Z,23.98
2018-04-01T10:30:34.105Z,27.17
2018-04-01T10:33:00.376Z,20.62
2018-04-01T10:35:27.372Z,22.75
2018-04-01T10:37:53.623Z,26.17
2018-04-01T10:40:19.874Z,22.92
2018-04-01T10:42:46.123Z,21.27
2018-04-01T10:45:13.150Z,27.73
2018-04-01T10:47:39.420Z,28.38
2018-04-01T10:50:05.663Z,30.20
2018-04-01T10:52:31.927Z,29.95
2018-04-01T10:54:58.006Z,25.77
2018-04-01T10:57:24.236Z,30.75
2018-04-01T10:59:50.300Z,31.48
2018-04-01T11:02:16.365Z,26.70
2018-04-01T11:04:43.220Z,33.75
2018-04-01T11:07:09.271Z,35.72
2018-04-01T11:09:35.365Z,29.48
2018-04-01T11:12:01.408Z,28.95
2018-04-01T11:14:27.504Z,32.25
2018-04-01T11:16:54.300Z,29.10
2018-04-01T11:19:20.352Z,28.00
2018-04-01T11:21:46.415Z,23.75
2018-04-01T11:24:12.468Z,26.80
2018-04-01T11:26:38.540Z,34.78
2018-04-01T11:29:05.343Z,28.40
2018-04-01T11:31:31.425Z,28.65
2018-04-01T11:33:58.175Z,25.33
2018-04-01T11:36:24.979Z,32.75
2018-04-01T11:38:51.047Z,27.70
2018-04-01T11:41:17.094Z,25.58
2018-04-01T11:43:43.203Z,29.63
2018-04-01T11:46:09.992Z,26.12
2018-04-01T11:48:36.043Z,27.55
2018-04-01T11:51:02.261Z,30.65
2018-04-01T11:53:28.319Z,27.00
2018-04-01T11:55:54.480Z,26.87
2018-04-01T11:58:20.527Z,28.17
2018-04-01T12:00:46.583Z,30.80
2018-04-01T12:03:13.383Z,30.45
2018-04-01T12:05:39.441Z,29.50
2018-04-01T12:08:06.251Z,31.25
2018-04-01T12:10:32.288Z,34.33
2018-04-01T12:12:58.376Z,26.87
2018-04-01T12:15:24.450Z,28.10
2018-04-01T12:17:50.517Z,36.75
2018-04-01T12:20:16.575Z,35.47
2018-04-01T12:22:42.643Z,33.03
2018-04-01T12:25:09.499Z,34.00
2018-04-01T12:27:36.315Z,35.22
2018-04-01T12:30:02.396Z,32.42
2018-04-01T12:32:28.506Z,33.63
2018-04-01T12:34:54.601Z,36.03
2018-04-01T12:37:21.414Z,31.30
2018-04-01T12:39:47.485Z,34.20
2018-04-01T12:42:14.267Z,35.75
2018-04-01T12:44:40.580Z,34.13
2018-04-01T12:47:06.646Z,33.42
2018-04-01T12:49:32.689Z,40.95
2018-04-01T12:51:59.494Z,35.53
2018-04-01T12:54:25.568Z,35.65
2018-04-01T12:56:52.362Z,39.47
2018-04-01T12:59:18.423Z,40.38
2018-04-01T13:01:45.197Z,41.30
2018-04-01T13:04:11.255Z,33.40
2018-04-01T13:06:37.324Z,34.67
2018-04-01T13:09:04.127Z,37.67
2018-04-01T13:11:30.204Z,35.78
2018-04-01T13:13:56.260Z,34.55
2018-04-01T13:16:22.335Z,37.38
2018-04-01T13:18:49.123Z,37.22
2018-04-01T13:21:15.204Z,36.72
2018-04-01T13:23:41.979Z,43.20
2018-04-01T13:26:08.056Z,37.42
2018-04-01T13:28:34.127Z,33.28
2018-04-01T13:31:00.179Z,36.70
2018-04-01T13:33:26.265Z,35.47
2018-04-01T13:35:52.311Z,38.20
2018-04-01T13:38:18.374Z,31.08
2018-04-01T13:40:44.486Z,30.80
2018-04-01T13:43:10.495Z,32.85
2018-04-01T13:45:36.563Z,29.75
2018-04-01T13:48:02.597Z,32.17
2018-04-01T13:50:29.467Z,33.78
2018-04-01T13:52:56.277Z,30.65
2018-04-01T13:55:23.078Z,30.58
2018-04-01T13:57:49.151Z,29.12
2018-04-01T14:00:15.943Z,32.05
2018-04-01T14:02:42.021Z,29.40
2018-04-01T14:05:08.087Z,40.53
2018-04-01T14:07:34.163Z,27.02
2018-04-01T14:10:00.972Z,24.83
2018-04-01T14:12:27.036Z,33.97
2018-04-01T14:14:53.094Z,27.42
2018-04-01T14:17:19.183Z,28.08
2018-04-01T14:19:45.978Z,27.80
2018-04-01T14:22:12.099Z,32.05
2018-04-01T14:24:38.208Z,28.20
2018-04-01T14:27:04.255Z,35.65
2018-04-01T14:29:30.344Z,31.00
2018-04-01T14:31:56.401Z,31.37
2018-04-01T14:34:22.447Z,36.00
2018-04-01T14:36:48.515Z,33.05
2018-04-01T14:39:14.575Z,34.50
2018-04-01T14:41:40.611Z,34.25
2018-04-01T14:44:06.695Z,35.28
2018-04-01T14:46:32.747Z,39.25
2018-04-01T14:48:58.860Z,35.97
2018-04-01T14:51:24.923Z,38.58
2018-04-01T14:53:50.963Z,46.05
2018-04-01T14:56:17.019Z,46.63
2018-04-01T14:58:43.076Z,35.88
2018-04-01T15:01:09.127Z,37.42
2018-04-01T15:03:35.192Z,38.50
2018-04-01T15:06:01.231Z,33.25
2018-04-01T15:08:27.648Z,31.80
2018-04-01T15:10:53.715Z,30.30
2018-04-01T15:13:19.756Z,32.13
2018-04-01T15:15:45.841Z,30.02
2018-04-01T15:18:11.871Z,20.50
2018-04-01T15:20:37.951Z,17.98
2018-04-01T15:23:04.740Z,20.52
2018-04-01T15:25:30.786Z,16.90
2018-04-01T15:27:56.845Z,13.35
2018-04-01T15:30:23.648Z,12.98
2018-04-01T15:32:49.716Z,14.65
2018-04-01T15:35:16.495Z,12.60
2018-04-01T15:37:42.567Z,13.75
2018-04-01T15:40:09.384Z,11.38
2018-04-01T15:42:35.423Z,14.18
2018-04-01T15:45:01.529Z,16.52
2018-04-01T15:47:29.178Z,13.85
2018-04-01T15:49:55.283Z,15.48
2018-04-01T15:52:21.470Z,16.35
2018-04-01T15:54:47.543Z,18.20
2018-04-01T15:57:13.625Z,16.98
2018-04-01T15:59:39.681Z,16.55
2018-04-01T16:02:05.791Z,21.20
2018-04-01T16:04:31.855Z,15.25
2018-04-01T16:06:57.924Z,17.55
2018-04-01T16:09:24.763Z,17.83
2018-04-01T16:11:51.602Z,17.17
2018-04-01T16:14:17.654Z,19.30
2018-04-01T16:16:43.720Z,18.35
2018-04-01T16:19:09.831Z,18.00
2018-04-01T16:21:35.908Z,20.30
2018-04-01T16:24:01.959Z,21.67
2018-04-01T16:26:28.013Z,22.40
2018-04-01T16:28:54.100Z,24.58
2018-04-01T16:31:20.903Z,24.95
2018-04-01T16:33:47.012Z,23.85
2018-04-01T16:36:13.088Z,23.73
2018-04-01T16:38:39.967Z,27.17
2018-04-01T16:41:06.031Z,25.35
2018-04-01T16:43:32.123Z,23.70
2018-04-01T16:45:58.195Z,22.80
2018-04-01T16:48:24.239Z,21.92
2018-04-01T16:50:51.064Z,22.73
2018-04-01T16:53:17.103Z,24.33
2018-04-01T16:55:43.939Z,25.15
2018-04-01T16:58:10.764Z,23.98
2018-04-01T17:00:36.824Z,24.30
2018-04-01T17:03:02.887Z,25.80
2018-04-01T17:05:28.953Z,24.67
2018-04-01T17:07:55.767Z,23.95
2018-04-01T17:10:21.833Z,24.85
2018-04-01T17:12:47.892Z,27.35
2018-04-01T17:15:13.979Z,23.70
2018-04-01T17:17:40.796Z,21.98
2018-04-01T17:20:06.860Z,22.10
2018-04-01T17:22:32.926Z,25.40
2018-04-01T17:24:58.992Z,23.77
2018-04-01T17:27:25.831Z,24.08
2018-04-01T17:29:52.657Z,23.67
2018-04-01T17:32:18.820Z,26.90
2018-04-01T17:34:45.108Z,26.15
2018-04-01T17:37:12.182Z,25.88
2018-04-01T17:39:38.293Z,26.27
2018-04-01T17:42:04.375Z,29.02
2018-04-01T17:44:30.429Z,27.65
2018-04-01T17:46:56.503Z,25.27
2018-04-01T17:49:22.612Z,25.20
2018-04-01T17:51:49.419Z,25.95
2018-04-01T17:54:15.454Z,25.83
2018-04-01T17:56:42.275Z,28.83
2018-04-01T17:59:08.343Z,31.48
2018-04-01T18:01:34.415Z,28.12
2018-04-01T18:04:00.459Z,29.27
2018-04-01T18:06:26.535Z,26.20
2018-04-01T18:08:52.577Z,29.33
2018-04-01T18:11:18.653Z,35.70
2018-04-01T18:13:45.632Z,65.00
2018-04-01T18:16:11.714Z,32.65
2018-04-01T18:18:37.846Z,30.52
2018-04-01T18:21:04.007Z,32.78
2018-04-01T18:23:30.063Z,28.92
2018-04-01T18:25:56.113Z,26.80
2018-04-01T18:28:22.172Z,30.45
2018-04-01T18:30:48.980Z,28.33
2018-04-01T18:33:15.043Z,30.10
2018-04-01T18:35:41.075Z,33.20
2018-04-01T18:38:07.141Z,32.58
2018-04-01T18:40:33.187Z,29.05
2018-04-01T18:42:59.243Z,31.10
2018-04-01T18:45:25.323Z,28.90
2018-04-01T18:47:51.399Z,27.98
2018-04-01T18:52:51.088Z,28.95
2018-04-01T18:55:17.175Z,35.03
2018-04-01T18:57:43.215Z,31.25
2018-04-01T19:00:09.305Z,30.02
2018-04-01T19:02:35.424Z,36.38
2018-04-01T19:05:01.504Z,40.17
2018-04-01T19:07:27.548Z,34.90
2018-04-01T19:09:54.354Z,36.30
2018-04-01T19:12:20.402Z,37.30
2018-04-01T19:14:46.634Z,35.30
2018-04-01T19:17:12.887Z,38.90
2018-04-01T19:19:39.908Z,44.03
2018-04-01T19:22:06.931Z,40.03
2018-04-01T19:24:33.216Z,37.38
2018-04-01T19:26:59.483Z,39.40
2018-04-01T19:29:25.763Z,36.03
2018-04-01T19:31:52.756Z,45.50
2018-04-01T19:34:19.004Z,39.53
2018-04-01T19:36:45.263Z,38.40
2018-04-01T19:39:12.264Z,45.83
2018-04-01T19:41:38.568Z,43.67
2018-04-01T19:44:04.815Z,46.40
2018-04-01T19:46:31.091Z,46.67
2018-04-01T19:48:57.396Z,46.37
2018-04-01T19:51:23.648Z,53.87
2018-04-01T19:53:49.919Z,55.33
2018-04-01T19:56:16.216Z,67.65
2018-04-01T19:58:42.456Z,59.33
2018-04-01T20:01:09.448Z,66.00
2018-04-01T20:03:35.708Z,57.38
2018-04-01T20:06:01.980Z,59.15
2018-04-01T20:08:28.223Z,79.72
2018-04-01T20:10:54.476Z,71.55
2018-04-01T20:13:20.747Z,64.90
2018-04-01T20:15:47.743Z,68.80
2018-04-01T20:18:14.036Z,66.37
2018-04-01T20:20:41.050Z,77.90
2018-04-01T20:23:07.299Z,77.82
2018-04-01T20:25:34.271Z,65.85
2018-04-01T20:28:00.533Z,70.87
2018-04-01T20:30:26.797Z,69.70
2018-04-01T20:32:53.804Z,72.43
2018-04-01T20:35:20.050Z,75.05
2018-04-01T20:37:46.319Z,67.07
2018-04-01T20:40:12.582Z,71.50
2018-04-01T20:42:38.871Z,67.90
2018-04-01T20:45:05.852Z,71.65
2018-04-01T20:47:32.080Z,79.55
2018-04-01T20:49:58.363Z,73.43
2018-04-01T20:52:24.567Z,76.70
2018-04-01T20:54:50.819Z,70.60
2018-04-01T20:57:17.068Z,78.80
2018-04-01T20:59:44.079Z,81.37
2018-04-01T21:02:10.327Z,81.45
2018-04-01T21:04:37.340Z,84.55
2018-04-01T21:07:03.633Z,86.80
2018-04-01T21:09:29.926Z,101.30
2018-04-01T21:11:56.195Z,89.28
2018-04-01T21:14:22.462Z,91.70
2018-04-01T21:16:48.714Z,96.93
2018-04-01T21:19:15.003Z,90.28
2018-04-01T21:21:41.258Z,101.87
2018-04-01T21:24:07.536Z,98.55
2018-04-01T21:26:33.948Z,105.37
2018-04-01T21:29:01.404Z,97.78
2018-04-01T21:31:27.700Z,118.25
2018-04-01T21:33:54.100Z,114.65
2018-04-01T21:36:20.459Z,117.22
2018-04-01T21:38:46.708Z,115.85
2018-04-01T21:41:12.960Z,111.50
2018-04-01T21:43:39.959Z,119.45
2018-04-01T21:46:07.018Z,103.53
2018-04-01T21:48:33.270Z,107.70
2018-04-01T21:50:59.548Z,117.68
2018-04-01T21:53:25.824Z,106.50
2018-04-01T21:55:52.079Z,120.53
2018-04-01T21:58:18.348Z,121.25
2018-04-01T22:00:44.659Z,128.43
2018-04-01T22:03:10.902Z,115.18
2018-04-01T22:05:37.161Z,119.93
2018-04-01T22:08:03.435Z,123.95
2018-04-01T22:10:29.686Z,117.78
2018-04-01T22:12:55.952Z,118.47
2018-04-01T22:15:22.183Z,129.95
2018-04-01T22:17:48.453Z,143.23
2018-04-01T22:20:14.702Z,133.02
2018-04-01T22:22:53.148Z,123.85
2018-04-01T22:25:19.415Z,130.52
2018-04-01T22:27:46.499Z,118.35
2018-04-01T22:30:12.756Z,115.35
2018-04-01T22:32:39.004Z,125.75
2018-04-01T22:35:05.244Z,116.07
2018-04-01T22:37:31.527Z,120.45
2018-04-01T22:39:57.779Z,128.00
2018-04-01T22:42:24.021Z,119.32
2018-04-01T22:44:51.027Z,128.77
2018-04-01T22:47:17.280Z,124.43
2018-04-01T22:49:43.563Z,132.05
2018-04-01T22:52:09.827Z,128.48
2018-04-01T22:54:36.125Z,135.25
2018-04-01T22:57:02.408Z,127.95
2018-04-01T22:59:28.668Z,129.68
2018-04-01T23:01:54.923Z,111.65
2018-04-01T23:04:21.187Z,114.65
2018-04-01T23:06:47.448Z,126.47
2018-04-01T23:09:14.473Z,126.87
2018-04-01T23:11:40.735Z,118.22
2018-04-01T23:14:07.761Z,135.90
2018-04-01T23:16:34.015Z,116.47
2018-04-01T23:19:00.999Z,118.65
2018-04-01T23:21:27.268Z,116.82
2018-04-01T23:23:53.566Z,131.93
2018-04-01T23:26:19.835Z,118.70
2018-04-01T23:28:48.012Z,130.32
2018-04-01T23:31:14.327Z,129.23
2018-04-01T23:33:40.604Z,126.35
2018-04-01T23:36:06.891Z,126.28
2018-04-01T23:38:33.135Z,109.72
2018-04-01T23:41:00.180Z,117.93
2018-04-01T23:43:27.206Z,116.82
2018-04-01T23:45:53.480Z,112.82
2018-04-01T23:48:19.772Z,111.20
2018-04-01T23:50:46.038Z,117.10
2018-04-01T23:53:12.268Z,118.28
2018-04-01T23:55:38.571Z,124.00
2018-04-01T23:58:05.593Z,142.15
